Baltimore, Maryland
Traffic Map
Current Weather Conditions
Baltimore, Maryland
Clear
Clear
37°
Feels Like: 31°
Wind Chill: 31° Ceiling: Unl
Heat Index: 37° Visibility: 10mi
Dew Point: Wind: 8mph
Humidity: 26% Direction: 10° (N)
Pressure: 30.37in Gusts: 17mph
Raw Report DataKBWI 291554Z 01007G15KT 340V060 10SM CLR 03/M15 A3037 RMK AO2 SLP286 T00281150
Traffic Incident Summary
Active as of:
Severity:
Category:
InformationThere was an issue retrieving the traffic information for this location. Please try a different location or try again shortly.
Advertisements
Track Severe Weather on mobile